Decoded Metar for LFRC (CHERBOURG in FRANCE) (IATA:CER) | Meteo·Mobile Aviation Weather
aviador You're here:

LFRC Decoded Metar

CHERBOURG in FRANCE
Report Time2019-07-22 15:30:00
UTC Time2019-07-22 15:50:05
Flight Rules vfr VFR
Wind010° at 05 kt
W.Decomp.*RWY 10: 0.2 kt HW 5 kt LCW
Visibility9999 m
Phenomena:N/A
Clouds:N/A
Expected CloudBase > 2,400 ft AGL from Temp-Dew spread
CeilingNone
Temp21°C (ISA +7)
Dew Point15°C (69% RH)
AAT20.8°C
QNH1023 hPa
Density Alt1,152 ft
Elevation453 ft
Report Wrong Elevation
Raw Report
LFRC 221530Z AUTO 01005KT 320V050 CAVOK 21/15 Q1023 NOSIG=

Extra information for LFRC:More info

Metar Taf Metar & Taf Last 4 Metars F.Rules Stats Wind Profile Meteogram Temp Stats Airport Information Weather charts Add Link Nearby VenuesMetar ALERT Operation Metar Decoded Social comments